createdAt,value
2023-07-05T00:00:14.972Z,43.20
2023-07-05T00:00:36.050Z,39.40
2023-07-05T00:00:57.108Z,40.70
2023-07-05T00:01:18.298Z,39.50
2023-07-05T00:01:39.397Z,38.20
2023-07-05T00:02:00.610Z,35.50
2023-07-05T00:02:21.798Z,29.70
2023-07-05T00:02:43.141Z,20.80
2023-07-05T00:03:04.286Z,23.70
2023-07-05T00:03:25.397Z,23.40
2023-07-05T00:03:46.462Z,16.60
2023-07-05T00:04:07.574Z,11.60
2023-07-05T00:04:28.599Z,8.70
2023-07-05T00:04:49.663Z,9.00
2023-07-05T00:05:10.760Z,6.60
2023-07-05T00:05:31.829Z,7.10
2023-07-05T00:05:53.264Z,9.00
2023-07-05T00:06:14.491Z,11.30
2023-07-05T00:06:35.545Z,11.80
2023-07-05T00:06:56.614Z,11.60
2023-07-05T00:07:17.705Z,12.50
2023-07-05T00:07:38.959Z,17.80
2023-07-05T00:08:00.052Z,20.20
2023-07-05T00:08:21.104Z,19.30
2023-07-05T00:08:42.180Z,17.00
2023-07-05T00:09:03.233Z,14.00
2023-07-05T00:09:24.299Z,14.40
2023-07-05T00:09:45.371Z,16.10
2023-07-05T00:10:06.425Z,16.20
2023-07-05T00:10:27.498Z,18.90
2023-07-05T00:10:48.547Z,16.20
2023-07-05T00:11:09.615Z,14.80
2023-07-05T00:11:30.662Z,14.60
2023-07-05T00:11:51.763Z,13.70
2023-07-05T00:12:12.810Z,12.60
2023-07-05T00:12:33.851Z,13.40
2023-07-05T00:12:55.134Z,14.10
2023-07-05T00:13:16.487Z,15.70
2023-07-05T00:13:37.580Z,14.70
2023-07-05T00:13:58.681Z,14.60
2023-07-05T00:14:19.746Z,16.40
2023-07-05T00:14:40.797Z,16.10
2023-07-05T00:15:01.897Z,14.20
2023-07-05T00:15:22.972Z,11.50
2023-07-05T00:15:44.052Z,10.80
2023-07-05T00:16:05.190Z,11.70
2023-07-05T00:16:26.287Z,11.40
2023-07-05T00:16:47.375Z,11.70
2023-07-05T00:17:08.435Z,11.50
2023-07-05T00:17:29.509Z,10.50
2023-07-05T00:17:50.564Z,9.50
2023-07-05T00:18:11.653Z,8.30
2023-07-05T00:18:32.770Z,9.60
2023-07-05T00:18:53.836Z,8.10
2023-07-05T00:19:14.889Z,7.30
2023-07-05T00:19:35.935Z,6.90
2023-07-05T00:19:56.996Z,6.10
2023-07-05T00:20:18.119Z,5.00
2023-07-05T00:20:39.240Z,4.10
2023-07-05T00:21:00.289Z,5.00
2023-07-05T00:21:21.349Z,4.70
2023-07-05T00:21:42.412Z,4.20
2023-07-05T00:22:03.464Z,5.00
2023-07-05T00:22:24.552Z,5.10
2023-07-05T00:22:45.599Z,5.10
2023-07-05T00:23:06.662Z,6.20
2023-07-05T00:23:27.798Z,6.70
2023-07-05T00:23:49.074Z,6.60
2023-07-05T00:24:10.158Z,4.60
2023-07-05T00:24:31.212Z,5.00
2023-07-05T00:24:52.278Z,4.90
2023-07-05T00:25:13.340Z,4.10
2023-07-05T00:25:34.400Z,4.80
2023-07-05T00:25:55.596Z,5.30
2023-07-05T00:26:16.716Z,4.60
2023-07-05T00:26:37.788Z,3.80
2023-07-05T00:26:58.843Z,4.50
2023-07-05T00:27:19.917Z,4.60
2023-07-05T00:27:40.955Z,5.10
2023-07-05T00:28:02.038Z,5.40
2023-07-05T00:28:23.072Z,5.30
2023-07-05T00:28:44.210Z,5.50
2023-07-05T00:29:05.314Z,5.20
2023-07-05T00:29:26.356Z,3.90
2023-07-05T00:29:47.408Z,4.20
2023-07-05T00:30:08.495Z,4.60
2023-07-05T00:30:29.539Z,5.10
2023-07-05T00:30:50.644Z,3.50
2023-07-05T00:31:11.722Z,4.30
2023-07-05T00:31:32.791Z,5.10
2023-07-05T00:31:53.976Z,6.70
2023-07-05T00:32:15.082Z,8.30
2023-07-05T00:32:36.138Z,9.90
2023-07-05T00:32:57.248Z,16.00
2023-07-05T00:33:18.364Z,21.20
2023-07-05T00:33:39.436Z,22.80
2023-07-05T00:34:00.521Z,21.20
2023-07-05T00:34:21.598Z,20.20
2023-07-05T00:34:42.665Z,15.60
2023-07-05T00:35:03.739Z,10.00
2023-07-05T00:35:24.791Z,8.60
2023-07-05T00:35:45.847Z,6.90
2023-07-05T00:36:06.916Z,6.00
2023-07-05T00:36:27.991Z,5.40
2023-07-05T00:36:49.054Z,5.00
2023-07-05T00:37:10.103Z,5.70
2023-07-05T00:37:31.174Z,7.70
2023-07-05T00:37:52.220Z,7.10
2023-07-05T00:38:13.266Z,6.90
2023-07-05T00:38:34.331Z,6.60
2023-07-05T00:38:55.384Z,6.90
2023-07-05T00:39:16.475Z,5.60
2023-07-05T00:39:37.593Z,6.00
2023-07-05T00:39:58.647Z,5.80
2023-07-05T00:40:19.694Z,5.90
2023-07-05T00:40:40.757Z,5.70
2023-07-05T00:41:01.842Z,6.40
2023-07-05T00:41:22.884Z,7.50
2023-07-05T00:41:43.950Z,7.10
2023-07-05T00:42:05.006Z,8.10
2023-07-05T00:42:26.068Z,9.00
2023-07-05T00:42:47.150Z,10.40
2023-07-05T00:43:08.176Z,11.80
2023-07-05T00:43:29.357Z,10.10
2023-07-05T00:43:50.557Z,8.30
2023-07-05T00:44:11.843Z,6.50
2023-07-05T00:44:33.087Z,6.00
2023-07-05T00:44:54.603Z,7.80
2023-07-05T00:45:15.661Z,6.10
2023-07-05T00:45:36.744Z,7.00
2023-07-05T00:45:58.221Z,9.10
2023-07-05T00:46:19.731Z,7.80
2023-07-05T00:46:40.895Z,8.10
2023-07-05T00:47:02.022Z,8.40
2023-07-05T00:47:23.165Z,8.30
2023-07-05T00:47:44.259Z,8.80
2023-07-05T00:48:05.304Z,7.60
2023-07-05T00:48:26.369Z,7.90
2023-07-05T00:48:47.461Z,9.20
2023-07-05T00:49:08.517Z,11.70
2023-07-05T00:49:29.564Z,11.10
2023-07-05T00:49:50.835Z,11.30
2023-07-05T00:50:12.092Z,11.60
2023-07-05T00:50:33.190Z,10.80
2023-07-05T00:50:54.240Z,9.80
2023-07-05T00:51:15.302Z,9.90
2023-07-05T00:51:36.344Z,8.70
2023-07-05T00:51:57.420Z,9.80
2023-07-05T00:52:18.518Z,8.70
2023-07-05T00:52:39.670Z,7.40
2023-07-05T00:53:00.695Z,7.20
2023-07-05T00:53:21.787Z,7.90
2023-07-05T00:53:42.827Z,8.50
2023-07-05T00:54:03.883Z,8.20
2023-07-05T00:54:24.953Z,8.50
2023-07-05T00:54:46.015Z,9.60
2023-07-05T00:55:07.286Z,8.80
2023-07-05T00:55:28.403Z,8.30
2023-07-05T00:55:49.453Z,9.30
2023-07-05T00:56:10.515Z,8.00
2023-07-05T00:56:31.574Z,7.70
2023-07-05T00:56:52.637Z,8.10
2023-07-05T00:57:13.698Z,9.10
2023-07-05T00:57:34.762Z,8.20
2023-07-05T00:57:55.812Z,7.80
2023-07-05T00:58:16.873Z,6.80
2023-07-05T00:58:37.923Z,7.30
2023-07-05T00:58:58.986Z,8.20
2023-07-05T00:59:20.047Z,7.80
2023-07-05T00:59:41.100Z,6.80
2023-07-05T01:00:02.154Z,6.10
2023-07-05T01:00:23.316Z,6.80
2023-07-05T01:00:44.401Z,6.20
2023-07-05T01:01:05.500Z,6.60
2023-07-05T01:01:26.597Z,5.90
2023-07-05T01:02:02.135Z,5.60
2023-07-05T01:02:14.680Z,6.30
2023-07-05T01:02:35.748Z,6.30
2023-07-05T01:02:56.833Z,5.80
2023-07-05T01:03:17.903Z,6.40
2023-07-05T01:03:38.960Z,7.60
2023-07-05T01:04:00.025Z,6.70
2023-07-05T01:04:21.066Z,6.30
2023-07-05T01:04:42.118Z,6.40
2023-07-05T01:05:03.197Z,6.40
2023-07-05T01:05:24.404Z,6.50
2023-07-05T01:05:45.506Z,6.80
2023-07-05T01:06:06.589Z,5.60
2023-07-05T01:06:27.640Z,5.30
2023-07-05T01:06:48.693Z,6.90
2023-07-05T01:07:09.790Z,6.30
2023-07-05T01:07:30.835Z,5.80
2023-07-05T01:07:51.918Z,5.40
2023-07-05T01:08:12.951Z,5.60
2023-07-05T01:08:34.011Z,5.60
2023-07-05T01:08:55.082Z,4.90
2023-07-05T01:09:16.169Z,5.20
2023-07-05T01:09:37.232Z,5.30
2023-07-05T01:09:58.302Z,6.20
2023-07-05T01:10:19.410Z,5.00
2023-07-05T01:10:40.597Z,6.20
2023-07-05T01:11:01.732Z,6.20
2023-07-05T01:11:22.810Z,7.20
2023-07-05T01:11:43.862Z,5.60
2023-07-05T01:12:04.907Z,6.00
2023-07-05T01:12:25.975Z,7.20
2023-07-05T01:12:47.035Z,8.40
2023-07-05T01:13:08.098Z,5.90
2023-07-05T01:13:29.173Z,6.00
2023-07-05T01:13:50.269Z,6.00
2023-07-05T01:14:11.352Z,5.70
2023-07-05T01:14:32.419Z,4.40
2023-07-05T01:14:53.466Z,4.70
2023-07-05T01:15:14.576Z,4.80
2023-07-05T01:15:35.622Z,4.70
2023-07-05T01:15:57.352Z,4.80
2023-07-05T01:16:18.569Z,4.90
2023-07-05T01:16:39.632Z,4.60
2023-07-05T01:17:00.727Z,5.10
2023-07-05T01:17:22.064Z,4.20
2023-07-05T01:17:43.348Z,5.10
2023-07-05T01:18:04.482Z,5.70
2023-07-05T01:18:25.515Z,5.20
2023-07-05T01:18:46.564Z,6.20
2023-07-05T01:19:07.629Z,6.30
2023-07-05T01:19:28.684Z,5.10
2023-07-05T01:19:49.751Z,4.90
2023-07-05T01:20:10.831Z,6.30
2023-07-05T01:20:31.861Z,6.00
2023-07-05T01:20:52.921Z,4.20
2023-07-05T01:21:14.002Z,5.20
2023-07-05T01:21:35.300Z,5.80
2023-07-05T01:21:56.396Z,5.30
2023-07-05T01:22:17.440Z,3.80
2023-07-05T01:22:38.503Z,4.50
2023-07-05T01:22:59.574Z,5.40
2023-07-05T01:23:20.610Z,4.60
2023-07-05T01:23:41.675Z,4.20
2023-07-05T01:24:02.725Z,5.00
2023-07-05T01:24:23.794Z,5.10
2023-07-05T01:24:44.839Z,4.80
2023-07-05T01:25:05.913Z,4.10
2023-07-05T01:25:26.948Z,4.50
2023-07-05T01:25:49.769Z,3.90
2023-07-05T01:26:13.037Z,4.20
2023-07-05T01:26:34.286Z,4.80
2023-07-05T01:26:55.380Z,4.30
2023-07-05T01:27:16.451Z,4.20
2023-07-05T01:27:37.492Z,4.10
2023-07-05T01:27:58.567Z,4.10
2023-07-05T01:28:19.613Z,4.80
2023-07-05T01:28:40.674Z,5.10
2023-07-05T01:29:01.735Z,4.70
2023-07-05T01:29:22.772Z,4.50
2023-07-05T01:29:43.821Z,5.10
2023-07-05T01:30:04.889Z,5.80
2023-07-05T01:30:25.938Z,5.40
2023-07-05T01:30:47.004Z,4.40
2023-07-05T01:31:08.075Z,4.10
2023-07-05T01:31:29.205Z,4.00
2023-07-05T01:31:50.515Z,5.10
2023-07-05T01:32:11.616Z,5.60
2023-07-05T01:32:32.711Z,4.50
2023-07-05T01:32:53.775Z,4.00
2023-07-05T01:33:14.803Z,4.60
2023-07-05T01:33:35.868Z,4.20
2023-07-05T01:33:56.953Z,5.30
2023-07-05T01:34:17.990Z,6.00
2023-07-05T01:34:39.061Z,5.30
2023-07-05T01:35:00.147Z,5.30
2023-07-05T01:35:21.191Z,4.80
2023-07-05T01:35:42.228Z,4.40
2023-07-05T01:36:03.288Z,5.90
2023-07-05T01:36:24.349Z,5.30
2023-07-05T01:36:45.433Z,4.40
2023-07-05T01:37:06.523Z,5.30
2023-07-05T01:37:27.785Z,4.10
2023-07-05T01:37:48.844Z,4.70
2023-07-05T01:38:09.929Z,4.80
2023-07-05T01:38:30.968Z,5.20
2023-07-05T01:38:52.019Z,5.10
2023-07-05T01:39:13.090Z,4.20
2023-07-05T01:39:34.154Z,4.40
2023-07-05T01:39:55.196Z,4.00
2023-07-05T01:40:16.289Z,4.00
2023-07-05T01:40:37.358Z,4.30
2023-07-05T01:40:58.391Z,4.30
2023-07-05T01:41:19.449Z,4.80
2023-07-05T01:41:40.523Z,4.40
2023-07-05T01:42:01.584Z,4.20
2023-07-05T01:42:22.853Z,5.10
2023-07-05T01:42:43.950Z,6.10
2023-07-05T01:43:05.020Z,6.20
2023-07-05T01:43:26.077Z,4.80
2023-07-05T01:43:47.129Z,4.50
2023-07-05T01:44:08.187Z,6.00
2023-07-05T01:44:29.246Z,5.10
2023-07-05T01:44:50.299Z,5.20
2023-07-05T01:45:11.377Z,4.90
2023-07-05T01:45:32.421Z,5.40
2023-07-05T01:45:53.839Z,5.20
2023-07-05T01:46:15.049Z,5.40
2023-07-05T01:46:36.132Z,4.30
2023-07-05T01:46:57.249Z,4.40
2023-07-05T01:47:18.361Z,4.40
2023-07-05T01:47:39.644Z,4.40
2023-07-05T01:48:00.892Z,4.70
2023-07-05T01:48:21.979Z,5.20
2023-07-05T01:48:43.070Z,4.60
2023-07-05T01:49:04.161Z,4.10
2023-07-05T01:49:25.205Z,5.70
2023-07-05T01:49:46.260Z,4.50
2023-07-05T01:50:07.350Z,5.60
2023-07-05T01:50:28.407Z,4.30
2023-07-05T01:50:49.450Z,5.20
2023-07-05T01:51:10.546Z,4.20
2023-07-05T01:51:31.581Z,4.50
2023-07-05T01:51:52.638Z,4.10
2023-07-05T01:52:13.808Z,4.10
2023-07-05T01:52:34.836Z,4.20
2023-07-05T01:52:56.105Z,4.60
2023-07-05T01:53:17.214Z,4.50
2023-07-05T01:53:38.253Z,4.50
2023-07-05T01:53:59.299Z,4.80
2023-07-05T01:54:20.358Z,3.10
2023-07-05T01:54:41.432Z,3.30
2023-07-05T01:55:02.481Z,3.80
2023-07-05T01:55:23.536Z,3.70
2023-07-05T01:55:44.606Z,3.50
2023-07-05T01:56:05.658Z,3.60
2023-07-05T01:56:26.710Z,4.70
2023-07-05T01:56:47.764Z,4.90
2023-07-05T01:57:08.829Z,3.40
2023-07-05T01:57:29.911Z,4.00
2023-07-05T01:57:50.977Z,4.90
2023-07-05T01:58:12.117Z,3.90
2023-07-05T01:58:33.208Z,4.10
2023-07-05T01:58:54.266Z,3.70
2023-07-05T01:59:15.313Z,3.90
2023-07-05T01:59:36.381Z,4.90
2023-07-05T01:59:57.436Z,4.20
2023-07-05T02:00:18.498Z,4.50
2023-07-05T02:00:39.559Z,4.90
2023-07-05T02:01:00.644Z,4.20
2023-07-05T02:01:21.834Z,4.50
2023-07-05T02:01:43.145Z,3.30
2023-07-05T02:02:04.306Z,3.30
2023-07-05T02:02:25.458Z,3.10
2023-07-05T02:02:46.778Z,3.50
2023-07-05T02:03:07.891Z,4.00
2023-07-05T02:03:29.055Z,4.40
2023-07-05T02:03:50.317Z,3.50
2023-07-05T02:04:11.373Z,3.80
2023-07-05T02:04:32.453Z,5.00
2023-07-05T02:04:53.525Z,4.20
2023-07-05T02:05:14.599Z,4.50
2023-07-05T02:05:35.656Z,4.20
2023-07-05T02:05:56.776Z,3.20
2023-07-05T02:06:17.915Z,3.20
2023-07-05T02:06:38.958Z,4.20
2023-07-05T02:07:00.020Z,3.70
2023-07-05T02:07:21.089Z,3.70
2023-07-05T02:07:42.140Z,4.00
2023-07-05T02:08:03.199Z,2.60
2023-07-05T02:08:24.274Z,2.80
2023-07-05T02:08:45.550Z,3.20
2023-07-05T02:09:06.634Z,3.40
2023-07-05T02:09:27.691Z,4.10
2023-07-05T02:09:48.735Z,4.60
2023-07-05T02:10:09.799Z,3.40
2023-07-05T02:10:30.844Z,3.90
2023-07-05T02:10:51.908Z,3.40
2023-07-05T02:11:13.011Z,3.30
2023-07-05T02:11:34.077Z,3.70
2023-07-05T02:11:55.098Z,3.50
2023-07-05T02:12:16.160Z,3.30
2023-07-05T02:12:37.251Z,3.60
2023-07-05T02:12:58.317Z,3.20
2023-07-05T02:13:19.401Z,4.30
2023-07-05T02:13:40.490Z,3.40
2023-07-05T02:14:01.955Z,3.80
2023-07-05T02:14:23.146Z,3.90
2023-07-05T02:14:44.206Z,3.90
2023-07-05T02:15:05.268Z,4.70
2023-07-05T02:15:26.335Z,4.40
2023-07-05T02:15:47.387Z,3.10
2023-07-05T02:16:08.447Z,3.60
2023-07-05T02:16:29.520Z,4.20
2023-07-05T02:16:50.574Z,3.40
2023-07-05T02:17:11.628Z,3.40
2023-07-05T02:17:32.706Z,3.50
2023-07-05T02:17:53.775Z,3.50
2023-07-05T02:18:14.838Z,3.50
2023-07-05T02:18:35.895Z,3.80
2023-07-05T02:18:56.972Z,4.10
2023-07-05T02:19:18.238Z,4.10
2023-07-05T02:19:39.509Z,3.50
2023-07-05T02:20:00.682Z,3.10
2023-07-05T02:20:21.847Z,3.30
2023-07-05T02:20:42.897Z,4.30
2023-07-05T02:21:03.950Z,3.70
2023-07-05T02:21:24.998Z,3.50
2023-07-05T02:21:46.061Z,4.40
2023-07-05T02:22:07.176Z,4.40
2023-07-05T02:22:28.238Z,4.90
2023-07-05T02:22:49.275Z,4.20
2023-07-05T02:23:10.339Z,4.10
2023-07-05T02:23:31.418Z,3.60
2023-07-05T02:23:52.479Z,3.40
2023-07-05T02:24:13.518Z,3.80
2023-07-05T02:24:34.624Z,4.40
2023-07-05T02:24:55.741Z,3.50
2023-07-05T02:25:16.824Z,3.90
2023-07-05T02:25:37.893Z,4.30
2023-07-05T02:25:58.950Z,3.50
2023-07-05T02:26:19.998Z,3.60
2023-07-05T02:26:41.064Z,3.80
2023-07-05T02:27:02.131Z,3.80
2023-07-05T02:27:23.178Z,3.80
2023-07-05T02:27:44.241Z,3.00
2023-07-05T02:28:05.300Z,3.70
2023-07-05T02:28:26.357Z,4.20
2023-07-05T02:28:47.421Z,3.90
2023-07-05T02:29:08.487Z,3.20
2023-07-05T02:29:29.530Z,4.00
2023-07-05T02:29:50.823Z,4.20
2023-07-05T02:30:12.097Z,3.70
2023-07-05T02:30:33.212Z,4.30
2023-07-05T02:30:54.326Z,3.60
2023-07-05T02:31:15.411Z,3.00
2023-07-05T02:31:36.451Z,3.80
2023-07-05T02:31:57.505Z,3.90
2023-07-05T02:32:18.672Z,3.60
2023-07-05T02:32:39.797Z,4.00
2023-07-05T02:33:00.992Z,3.60
2023-07-05T02:33:22.030Z,3.70
2023-07-05T02:33:43.089Z,4.50
2023-07-05T02:34:04.151Z,3.60
2023-07-05T02:34:25.197Z,3.60
2023-07-05T02:34:46.246Z,4.70
2023-07-05T02:35:07.534Z,4.10
2023-07-05T02:35:28.650Z,4.10
2023-07-05T02:35:49.733Z,4.20
2023-07-05T02:36:10.774Z,3.40
2023-07-05T02:36:31.842Z,4.00
2023-07-05T02:36:52.895Z,3.50
2023-07-05T02:37:13.960Z,3.80
2023-07-05T02:37:35.011Z,4.30
2023-07-05T02:37:56.113Z,5.60
2023-07-05T02:38:17.161Z,5.50
2023-07-05T02:38:38.240Z,4.20
2023-07-05T02:38:59.272Z,4.70
2023-07-05T02:39:20.360Z,3.40
2023-07-05T02:39:41.406Z,4.10
2023-07-05T02:40:02.506Z,4.00
2023-07-05T02:40:23.618Z,2.90
2023-07-05T02:40:44.690Z,3.70
2023-07-05T02:41:05.766Z,3.50
2023-07-05T02:41:26.871Z,3.70
2023-07-05T02:41:48.026Z,4.10
2023-07-05T02:42:09.082Z,4.90
2023-07-05T02:42:30.154Z,3.90
2023-07-05T02:42:51.230Z,2.90
2023-07-05T02:43:12.267Z,3.50
2023-07-05T02:43:33.340Z,4.60
2023-07-05T02:43:54.389Z,5.00
2023-07-05T02:44:15.439Z,5.70
2023-07-05T02:44:36.509Z,4.90
2023-07-05T02:44:57.583Z,4.30
2023-07-05T02:45:18.696Z,3.20
2023-07-05T02:45:39.769Z,4.30
2023-07-05T02:46:00.865Z,3.10
2023-07-05T02:46:21.926Z,4.50
2023-07-05T02:46:42.984Z,4.60
2023-07-05T02:47:04.064Z,4.20
2023-07-05T02:47:25.140Z,4.90
2023-07-05T02:47:46.238Z,4.10
2023-07-05T02:48:07.319Z,4.20
2023-07-05T02:48:28.417Z,3.50
2023-07-05T02:48:49.481Z,4.60
2023-07-05T02:49:10.536Z,3.50
2023-07-05T02:49:31.600Z,3.90
2023-07-05T02:49:52.660Z,3.80
2023-07-05T02:50:13.708Z,3.20
2023-07-05T02:50:34.767Z,3.30
2023-07-05T02:50:55.851Z,3.60
2023-07-05T02:51:16.977Z,5.80
2023-07-05T02:51:38.061Z,5.80
2023-07-05T02:51:59.109Z,4.30
2023-07-05T02:52:20.157Z,4.60
2023-07-05T02:52:41.217Z,3.90
2023-07-05T02:53:02.263Z,3.90
2023-07-05T02:53:23.340Z,4.40
2023-07-05T02:53:44.406Z,4.10
2023-07-05T02:54:05.442Z,4.70
2023-07-05T02:54:26.499Z,4.30
2023-07-05T02:54:47.552Z,3.90
2023-07-05T02:55:08.613Z,4.00
2023-07-05T02:55:29.659Z,3.30
2023-07-05T02:55:50.767Z,4.50
2023-07-05T02:56:12.280Z,4.80
2023-07-05T02:56:33.384Z,4.10
2023-07-05T02:56:54.464Z,4.30
2023-07-05T02:57:15.492Z,4.90
2023-07-05T02:57:36.562Z,4.90
2023-07-05T02:57:57.670Z,4.00
2023-07-05T02:58:18.815Z,3.00
2023-07-05T02:58:39.841Z,3.70
2023-07-05T02:59:00.912Z,3.20
2023-07-05T02:59:21.982Z,4.30
2023-07-05T02:59:43.048Z,3.30
2023-07-05T03:00:04.138Z,4.80
2023-07-05T03:00:25.173Z,5.10
2023-07-05T03:00:46.240Z,3.70
2023-07-05T03:01:07.307Z,4.40
2023-07-05T03:01:28.614Z,4.00
2023-07-05T03:01:49.733Z,3.40
2023-07-05T03:02:10.800Z,4.00
2023-07-05T03:02:33.638Z,3.70
2023-07-05T03:02:54.818Z,4.40
2023-07-05T03:03:15.863Z,4.70
2023-07-05T03:03:36.917Z,4.40
2023-07-05T03:03:57.990Z,5.50
2023-07-05T03:04:19.049Z,4.80
2023-07-05T03:04:40.156Z,4.50
2023-07-05T03:05:01.252Z,4.50
2023-07-05T03:05:22.305Z,5.20
2023-07-05T03:05:43.366Z,4.70
2023-07-05T03:06:04.436Z,4.90
2023-07-05T03:06:25.477Z,4.80
2023-07-05T03:06:46.593Z,4.00
2023-07-05T03:07:07.692Z,3.70
2023-07-05T03:07:28.756Z,4.10
2023-07-05T03:07:49.908Z,4.70
2023-07-05T03:08:11.028Z,3.60
2023-07-05T03:08:32.070Z,3.70
2023-07-05T03:08:53.140Z,5.10
2023-07-05T03:09:14.196Z,4.50
2023-07-05T03:09:35.253Z,4.00
2023-07-05T03:09:56.305Z,5.30
2023-07-05T03:10:17.370Z,5.40
2023-07-05T03:10:38.411Z,5.30
2023-07-05T03:10:59.488Z,4.30
2023-07-05T03:11:20.560Z,4.20
2023-07-05T03:11:41.594Z,4.60
2023-07-05T03:12:02.861Z,5.00
2023-07-05T03:12:44.954Z,4.20
2023-07-05T03:13:06.019Z,5.10
2023-07-05T03:13:27.134Z,4.80
2023-07-05T03:13:48.221Z,5.20
2023-07-05T03:14:09.300Z,3.60
2023-07-05T03:14:30.343Z,3.70
2023-07-05T03:14:51.402Z,4.00
2023-07-05T03:15:12.454Z,4.30
2023-07-05T03:15:33.515Z,3.50
2023-07-05T03:15:54.772Z,3.90
2023-07-05T03:16:16.238Z,4.80
2023-07-05T03:16:37.371Z,2.90
2023-07-05T03:16:58.529Z,2.90
2023-07-05T03:17:19.840Z,4.80
2023-07-05T03:17:41.127Z,5.40
2023-07-05T03:18:02.215Z,4.70
2023-07-05T03:18:23.275Z,4.30
2023-07-05T03:18:44.372Z,3.90
2023-07-05T03:19:05.407Z,4.00
2023-07-05T03:19:26.540Z,3.70
2023-07-05T03:19:47.599Z,3.70
2023-07-05T03:20:08.660Z,5.50
2023-07-05T03:20:29.717Z,6.00
2023-07-05T03:20:50.770Z,5.50
2023-07-05T03:21:11.852Z,4.90
2023-07-05T03:21:32.873Z,4.90
2023-07-05T03:21:53.976Z,4.30
2023-07-05T03:22:15.029Z,4.80
2023-07-05T03:22:36.144Z,6.20
2023-07-05T03:22:57.320Z,5.50
2023-07-05T03:23:18.384Z,4.10
2023-07-05T03:23:39.442Z,4.10
2023-07-05T03:24:00.521Z,4.40
2023-07-05T03:24:24.204Z,4.30
2023-07-05T03:24:46.196Z,4.20
2023-07-05T03:25:07.269Z,4.50
2023-07-05T03:25:28.364Z,5.10
2023-07-05T03:25:49.405Z,3.80
2023-07-05T03:26:10.458Z,3.70
2023-07-05T03:26:31.520Z,3.60
2023-07-05T03:26:52.582Z,4.10
2023-07-05T03:27:13.639Z,3.50
2023-07-05T03:27:34.686Z,3.50
2023-07-05T03:27:55.966Z,3.90
2023-07-05T03:28:17.072Z,4.00
2023-07-05T03:28:38.119Z,5.00
2023-07-05T03:28:59.201Z,4.10
2023-07-05T03:29:20.251Z,4.60
2023-07-05T03:29:41.329Z,4.10
2023-07-05T03:30:02.388Z,4.30
2023-07-05T03:30:23.459Z,4.90
2023-07-05T03:30:44.512Z,4.40
2023-07-05T03:31:05.572Z,5.00
2023-07-05T03:31:26.702Z,4.70
2023-07-05T03:31:47.819Z,4.00
2023-07-05T03:32:08.845Z,4.20
2023-07-05T03:32:29.970Z,3.90
2023-07-05T03:32:51.035Z,4.20
2023-07-05T03:33:12.104Z,4.20
2023-07-05T03:33:33.189Z,4.50
2023-07-05T03:33:54.263Z,4.50
2023-07-05T03:34:15.318Z,4.30
2023-07-05T03:34:36.373Z,4.60
2023-07-05T03:34:59.320Z,4.10
2023-07-05T03:35:22.203Z,5.20
2023-07-05T03:35:43.264Z,4.50
2023-07-05T03:36:04.318Z,4.80
2023-07-05T03:36:25.412Z,5.10
2023-07-05T03:36:46.471Z,4.10
2023-07-05T03:37:07.521Z,4.40
2023-07-05T03:37:28.590Z,3.60
2023-07-05T03:37:49.676Z,3.80
2023-07-05T03:38:10.716Z,4.60
2023-07-05T03:38:31.994Z,4.00
2023-07-05T03:38:53.101Z,4.20
2023-07-05T03:39:14.180Z,4.60
2023-07-05T03:39:35.229Z,3.80
2023-07-05T03:39:56.271Z,3.60
2023-07-05T03:40:17.348Z,4.10
2023-07-05T03:40:38.392Z,5.00
2023-07-05T03:40:59.482Z,5.50
2023-07-05T03:41:20.541Z,4.20
2023-07-05T03:41:41.583Z,4.50
2023-07-05T03:42:02.659Z,6.20
2023-07-05T03:42:23.697Z,4.60
2023-07-05T03:42:44.752Z,4.50
2023-07-05T03:43:05.846Z,4.10
2023-07-05T03:43:26.877Z,5.00
2023-07-05T03:43:47.976Z,4.70
2023-07-05T03:44:09.096Z,4.20
2023-07-05T03:44:30.146Z,4.10
2023-07-05T03:44:51.238Z,3.50
2023-07-05T03:45:12.332Z,4.40
2023-07-05T03:45:33.349Z,4.40
2023-07-05T03:45:54.434Z,3.60
2023-07-05T03:46:15.492Z,4.00
2023-07-05T03:46:36.544Z,5.30
2023-07-05T03:46:57.621Z,4.60
2023-07-05T03:47:18.699Z,4.40
2023-07-05T03:47:39.761Z,4.90
2023-07-05T03:48:00.877Z,4.10
2023-07-05T03:48:21.917Z,4.50
2023-07-05T03:48:43.029Z,4.40
2023-07-05T03:49:04.097Z,4.60
2023-07-05T03:49:25.189Z,4.00
2023-07-05T03:49:46.257Z,5.00
2023-07-05T03:50:07.304Z,5.40
2023-07-05T03:50:28.377Z,4.50
2023-07-05T03:50:49.436Z,5.00
2023-07-05T03:51:10.493Z,5.60
2023-07-05T03:51:31.545Z,4.80
2023-07-05T03:51:52.601Z,5.10
2023-07-05T03:52:13.663Z,5.10
2023-07-05T03:52:34.727Z,5.10
2023-07-05T03:52:55.784Z,4.00
2023-07-05T03:53:16.838Z,4.20
2023-07-05T03:53:37.920Z,5.10
2023-07-05T03:53:58.962Z,4.70
2023-07-05T03:54:20.270Z,4.80
2023-07-05T03:54:41.520Z,4.40
2023-07-05T03:55:02.582Z,3.70
2023-07-05T03:55:23.631Z,4.60
2023-07-05T03:55:44.691Z,3.60
2023-07-05T03:56:05.757Z,4.40
2023-07-05T03:56:26.812Z,4.30
2023-07-05T03:56:47.852Z,4.10
2023-07-05T03:57:08.938Z,4.60
2023-07-05T03:57:30.009Z,4.90
2023-07-05T03:57:51.045Z,5.80
2023-07-05T03:58:12.100Z,4.70
2023-07-05T03:58:33.178Z,3.70
2023-07-05T03:58:54.216Z,4.30
2023-07-05T03:59:15.291Z,5.70
2023-07-05T03:59:36.554Z,3.90
2023-07-05T03:59:57.859Z,3.60
2023-07-05T04:00:18.912Z,4.50
2023-07-05T04:00:39.990Z,5.00
2023-07-05T04:01:01.043Z,4.60
2023-07-05T04:01:22.163Z,4.40
2023-07-05T04:01:43.388Z,4.60
2023-07-05T04:02:04.473Z,5.20
2023-07-05T04:02:25.529Z,4.80
2023-07-05T04:02:46.614Z,4.50
2023-07-05T04:03:07.690Z,5.10
2023-07-05T04:03:28.845Z,4.60
2023-07-05T04:03:49.975Z,5.50
2023-07-05T04:04:11.093Z,4.60
2023-07-05T04:04:32.145Z,4.50
2023-07-05T04:04:53.432Z,4.50
2023-07-05T04:05:14.530Z,4.40
2023-07-05T04:05:35.584Z,4.30
2023-07-05T04:05:56.660Z,3.80
2023-07-05T04:06:17.729Z,4.20
2023-07-05T04:06:38.774Z,4.20
2023-07-05T04:06:59.819Z,4.30
2023-07-05T04:07:20.884Z,4.30
2023-07-05T04:07:41.935Z,4.10
2023-07-05T04:08:02.983Z,5.10
2023-07-05T04:08:24.057Z,5.20
2023-07-05T04:08:45.109Z,5.20
2023-07-05T04:09:06.177Z,4.40
2023-07-05T04:09:27.248Z,4.90
2023-07-05T04:09:48.301Z,4.90
2023-07-05T04:10:09.400Z,4.70
2023-07-05T04:10:30.508Z,3.60
2023-07-05T04:10:51.796Z,4.10
2023-07-05T04:11:13.042Z,4.20
2023-07-05T04:11:34.105Z,4.30
2023-07-05T04:11:55.173Z,5.10
2023-07-05T04:12:16.221Z,5.10
2023-07-05T04:12:37.295Z,4.70
2023-07-05T04:12:58.351Z,4.50
2023-07-05T04:13:19.452Z,3.60
2023-07-05T04:13:40.514Z,4.10
2023-07-05T04:14:01.781Z,4.30
2023-07-05T04:14:22.889Z,3.80
2023-07-05T04:14:43.970Z,3.80
2023-07-05T04:15:05.014Z,4.80
2023-07-05T04:15:26.161Z,5.10
2023-07-05T04:15:47.256Z,3.80
2023-07-05T04:16:08.407Z,3.80
2023-07-05T04:16:29.463Z,5.10
2023-07-05T04:16:50.535Z,4.40
2023-07-05T04:17:11.578Z,4.50
2023-07-05T04:17:32.668Z,4.40
2023-07-05T04:17:53.720Z,5.10
2023-07-05T04:18:14.805Z,4.50
2023-07-05T04:18:35.863Z,3.80
2023-07-05T04:18:57.001Z,5.10
2023-07-05T04:19:18.075Z,4.80
2023-07-05T04:19:39.139Z,5.30
2023-07-05T04:20:00.210Z,4.60
2023-07-05T04:20:21.257Z,4.40
2023-07-05T04:20:42.351Z,3.60
2023-07-05T04:21:03.461Z,5.20
2023-07-05T04:21:24.514Z,4.90
2023-07-05T04:21:45.584Z,5.90
2023-07-05T04:22:06.651Z,4.10
2023-07-05T04:22:27.724Z,5.80
2023-07-05T04:22:48.795Z,4.60
2023-07-05T04:23:09.824Z,4.00
2023-07-05T04:23:30.877Z,5.40
2023-07-05T04:23:51.967Z,5.40
2023-07-05T04:24:13.025Z,5.80
2023-07-05T04:24:34.112Z,4.60
2023-07-05T04:24:55.159Z,4.70
2023-07-05T04:25:16.229Z,4.90
2023-07-05T04:25:37.297Z,4.60
2023-07-05T04:25:58.374Z,4.40
2023-07-05T04:26:19.473Z,5.30
2023-07-05T04:26:40.518Z,4.30
2023-07-05T04:27:01.586Z,4.40
2023-07-05T04:27:22.644Z,4.60
2023-07-05T04:27:46.363Z,3.90
2023-07-05T04:28:07.696Z,4.70
2023-07-05T04:28:28.759Z,4.40
2023-07-05T04:28:49.845Z,4.80
2023-07-05T04:29:10.899Z,4.40
2023-07-05T04:29:31.939Z,3.80
2023-07-05T04:29:52.989Z,4.60
2023-07-05T04:30:14.057Z,4.80
2023-07-05T04:30:35.106Z,4.90
2023-07-05T04:30:56.371Z,3.90
2023-07-05T04:31:17.817Z,4.40
2023-07-05T04:31:38.916Z,4.50
2023-07-05T04:31:59.985Z,5.00
2023-07-05T04:32:21.062Z,4.70
2023-07-05T04:32:42.126Z,4.90
2023-07-05T04:33:03.199Z,4.00
2023-07-05T04:33:24.274Z,3.90
2023-07-05T04:33:45.352Z,4.10
2023-07-05T04:34:06.399Z,4.30
2023-07-05T04:34:27.450Z,5.50
2023-07-05T04:34:48.521Z,4.70
2023-07-05T04:35:09.576Z,4.30
2023-07-05T04:35:30.643Z,5.70
2023-07-05T04:35:51.708Z,6.00
2023-07-05T04:36:25.745Z,5.60
2023-07-05T04:36:39.936Z,4.80
2023-07-05T04:37:01.036Z,4.80
2023-07-05T04:37:29.314Z,4.70
2023-07-05T04:37:49.050Z,5.90
2023-07-05T04:38:10.129Z,5.20
2023-07-05T04:38:31.182Z,4.30
2023-07-05T04:38:52.240Z,4.40
2023-07-05T04:39:13.301Z,3.80
2023-07-05T04:39:34.362Z,4.60
2023-07-05T04:39:55.442Z,4.50
2023-07-05T04:40:16.497Z,4.10
2023-07-05T04:40:37.612Z,4.80
2023-07-05T04:40:58.694Z,3.70